Time;durP1;ratioP1;P1;durP2;ratioP2;P2;SDS_P1;SDS_P2;PMS_P1;PMS_P2;Temp;Humidity;BMP_temperature;BMP_pressure;BME280_temperature;BME280_humidity;BME280_pressure;Samples;Min_cycle;Max_cycle;Signal;HPM_P1;HPM_P2
2022/06/22 00:02:31;;;;;;;;;6.00;6.00;;;;;15.81;59.96;99234.06;6287526;20;2742009;-51
2022/06/22 00:05:06;;;;;;;;;5.00;5.00;;;;;16.09;58.70;99240.53;6283547;20;2732552;-49
2022/06/22 00:07:42;;;;;;;;;5.00;5.00;;;;;16.12;58.58;99250.22;6287463;20;2736776;-50
2022/06/22 00:10:16;;;;;;;;;7.00;7.00;;;;;15.85;60.60;99245.47;6287761;20;2737776;-52
2022/06/22 00:12:55;;;;;;;;;6.50;6.00;;;;;15.65;61.12;99236.41;6290431;20;2736854;-48
2022/06/22 00:15:38;;;;;;;;;7.00;7.00;;;;;15.41;62.36;99243.03;6286811;20;2752353;-55
2022/06/22 00:18:45;;;;;;;;;3.00;2.00;;;;;15.54;62.24;99246.34;6291463;20;2757565;-48
2022/06/22 00:21:40;;;;;;;;;6.50;6.00;;;;;15.55;62.17;99249.91;6284839;20;2732595;-49
2022/06/22 00:24:39;;;;;;;;;6.00;6.00;;;;;15.07;63.83;99253.25;6287357;20;2734646;-54
2022/06/22 00:27:20;;;;;;;;;7.00;7.00;;;;;15.05;64.79;99250.66;6287440;20;2742029;-50
2022/06/22 00:30:16;;;;;;;;;6.00;6.00;;;;;15.08;64.92;99247.69;6285362;20;2746125;-52
2022/06/22 00:33:08;;;;;;;;;6.00;6.00;;;;;15.04;65.45;99234.59;6287332;20;2732594;-49
2022/06/22 00:36:02;;;;;;;;;9.00;8.00;;;;;15.03;65.53;99228.31;6284218;20;2741039;-50
2022/06/22 00:38:32;;;;;;;;;9.00;8.00;;;;;14.93;65.07;99239.09;6288148;20;2748291;-50
2022/06/22 00:41:22;;;;;;;;;7.00;7.00;;;;;15.09;65.33;99238.59;6286997;20;2737873;-54
2022/06/22 00:43:52;;;;;;;;;6.00;6.00;;;;;15.25;64.60;99234.56;6286974;20;2736732;-48
2022/06/22 00:46:23;;;;;;;;;8.00;7.00;;;;;15.14;64.63;99230.94;6286443;20;2741010;-48
2022/06/22 00:48:55;;;;;;;;;7.00;7.00;;;;;15.51;63.70;99238.50;6306396;20;2744003;-52
2022/06/22 00:51:37;;;;;;;;;6.00;6.00;;;;;15.22;64.58;99248.31;6315629;20;2761738;-51
2022/06/22 00:54:16;;;;;;;;;6.80;6.80;;;;;15.10;65.22;99250.28;6325220;20;2468524;-51
2022/06/22 00:57:06;;;;;;;;;7.00;7.00;;;;;14.98;65.83;99246.81;6314650;20;2746091;-48
2022/06/22 01:00:19;;;;;;;;;8.00;8.00;;;;;14.68;67.85;99240.34;6309895;20;2734712;-48
2022/06/22 01:03:20;;;;;;;;;6.00;6.00;;;;;14.69;67.51;99241.19;6314392;20;2746108;-53
2022/06/22 01:06:09;;;;;;;;;8.50;7.00;;;;;15.11;65.79;99252.84;6288061;20;2745965;-51
2022/06/22 01:08:58;;;;;;;;;6.50;6.50;;;;;14.91;66.13;99245.63;6282929;20;2739853;-50
2022/06/22 01:12:19;;;;;;;;;7.00;7.00;;;;;15.07;65.74;99246.00;6285517;20;2736708;-49
2022/06/22 01:15:23;;;;;;;;;8.86;7.43;;;;;15.43;64.48;99241.03;6329037;20;3457561;-47
2022/06/22 01:18:06;;;;;;;;;6.00;6.00;;;;;15.47;63.77;99250.59;6317965;20;2737826;-50
2022/06/22 01:20:37;;;;;;;;;8.50;7.50;;;;;15.45;63.07;99244.44;6286202;20;2735711;-49
2022/06/22 01:23:43;;;;;;;;;10.00;8.00;;;;;15.42;63.02;99239.31;6305449;20;2769049;-53
2022/06/22 01:26:33;;;;;;;;;8.00;8.00;;;;;15.38;63.86;99246.00;6287152;20;2746166;-47
2022/06/22 01:29:15;;;;;;;;;9.00;8.00;;;;;15.61;62.73;99234.97;6283914;20;2747233;-49
2022/06/22 01:32:07;;;;;;;;;10.00;9.00;;;;;15.70;62.70;99239.59;6282445;20;2757651;-52
2022/06/22 01:34:44;;;;;;;;;6.00;6.00;;;;;15.32;63.84;99244.72;6310180;20;2734654;-49
2022/06/22 01:37:32;;;;;;;;;9.00;9.00;;;;;15.57;63.07;99237.94;6312537;20;2756547;-51
2022/06/22 01:40:29;;;;;;;;;12.20;9.60;;;;;15.73;62.31;99231.19;6304285;20;2794050;-50
2022/06/22 01:43:30;;;;;;;;;8.00;8.00;;;;;15.63;62.50;99241.94;6326685;20;3459643;-49
2022/06/22 01:47:02;;;;;;;;;9.29;8.86;;;;;15.36;63.34;99242.56;6355702;20;3483707;-49
2022/06/22 01:49:52;;;;;;;;;6.00;6.00;;;;;15.56;62.63;99235.38;6315567;20;2733835;-52
2022/06/22 01:53:10;;;;;;;;;8.00;8.00;;;;;15.51;62.70;99219.56;6280040;20;2751456;-48
2022/06/22 01:56:26;;;;;;;;;8.00;7.00;;;;;15.53;62.07;99231.13;6310384;20;2733604;-51
2022/06/22 01:59:47;;;;;;;;;9.00;9.00;;;;;15.53;62.57;99231.13;6312995;20;2753449;-51
2022/06/22 02:03:15;;;;;;;;;12.33;9.00;;;;;15.31;63.20;99226.75;6282597;20;2764362;-51
2022/06/22 02:09:17;;;;;;;;;13.00;13.00;;;;;14.78;66.11;99229.59;6287436;20;2779439;-47
2022/06/22 02:12:18;;;;;;;;;12.00;10.00;;;;;14.55;68.18;99238.81;6279709;20;2784749;-52
2022/06/22 02:14:55;;;;;;;;;9.20;9.20;;;;;14.24;69.73;99242.25;6303558;20;2752331;-52
2022/06/22 02:17:32;;;;;;;;;17.00;11.67;;;;;14.37;69.63;99230.41;6276947;20;3541931;-48
2022/06/22 02:20:19;;;;;;;;;15.33;14.00;;;;;14.73;67.65;99236.41;6306530;20;3540000;-49
2022/06/22 02:22:56;;;;;;;;;14.33;12.00;;;;;14.56;68.90;99235.13;6281672;20;2786740;-51
2022/06/22 02:25:28;;;;;;;;;10.67;9.67;;;;;14.86;66.85;99243.31;6308763;20;2782711;-49
2022/06/22 02:27:57;;;;;;;;;12.33;12.00;;;;;14.56;68.59;99241.41;6313388;20;3527410;-53
2022/06/22 02:30:24;;;;;;;;;13.50;12.00;;;;;14.57;68.23;99236.84;6314885;20;2786788;-53
2022/06/22 02:32:54;;;;;;;;;12.33;12.33;;;;;14.61;68.29;99249.09;6279567;20;2792031;-51
2022/06/22 02:35:23;;;;;;;;;9.80;9.80;;;;;14.56;67.92;99260.31;6336836;20;2788803;-48
2022/06/22 02:38:06;;;;;;;;;14.00;12.00;;;;;14.61;68.29;99266.19;6281696;20;2795137;-51
2022/06/22 02:46:18;;;;;;;;;14.67;14.00;;;;;14.88;65.90;99268.38;6280316;20;3526392;-53
2022/06/22 02:48:57;;;;;;;;;16.33;15.33;;;;;14.77;66.54;99256.75;6313779;20;3554835;-48
2022/06/22 02:51:41;;;;;;;;;12.00;12.00;;;;;14.93;66.05;99276.94;6280025;20;2801342;-50
2022/06/22 02:54:29;;;;;;;;;14.00;12.50;;;;;14.90;65.99;99271.78;6280021;20;2491977;-49
2022/06/22 02:57:37;;;;;;;;;15.00;11.00;;;;;14.89;66.25;99283.59;6284597;20;2805541;-50
2022/06/22 03:00:08;;;;;;;;;20.00;17.00;;;;;14.82;66.12;99271.56;6279470;20;2494066;-50
2022/06/22 03:02:36;;;;;;;;;17.00;13.00;;;;;15.02;65.92;99264.47;6280076;20;2678380;-48
2022/06/22 03:05:06;;;;;;;;;14.33;14.33;;;;;15.15;64.90;99272.38;6278575;20;3534825;-51
2022/06/22 03:07:44;;;;;;;;;15.00;13.00;;;;;15.22;64.61;99268.13;6312770;20;2800421;-51
2022/06/22 03:10:48;;;;;;;;;16.00;16.00;;;;;15.43;64.24;99287.03;6276337;20;3556510;-53
2022/06/22 03:13:28;;;;;;;;;12.50;12.50;;;;;15.44;63.95;99296.00;6280543;20;2793997;-51
2022/06/22 03:15:57;;;;;;;;;13.00;12.00;;;;;15.18;65.15;99279.34;6278912;20;2794000;-49
2022/06/22 03:18:30;;;;;;;;;11.50;10.00;;;;;15.29;65.22;99281.97;6316810;20;2781534;-48
2022/06/22 03:21:11;;;;;;;;;10.00;8.00;;;;;15.23;65.65;99280.66;6282747;20;2769142;-52
2022/06/22 03:24:30;;;;;;;;;9.00;9.00;;;;;15.47;64.42;99274.94;6280636;20;2743074;-48
2022/06/22 03:27:19;;;;;;;;;11.00;8.50;;;;;15.54;64.44;99289.66;6280912;20;2775322;-49
2022/06/22 03:30:04;;;;;;;;;8.00;8.00;;;;;15.53;64.83;99293.34;6281311;20;2742985;-48
2022/06/22 03:33:01;;;;;;;;;11.00;10.33;;;;;15.74;63.99;99298.72;6280668;20;2786717;-52
2022/06/22 03:35:57;;;;;;;;;12.00;10.50;;;;;15.56;64.69;99303.91;6327790;20;1881547;-49
2022/06/22 03:38:37;;;;;;;;;10.60;9.40;;;;;15.83;64.09;99290.78;6302577;20;2756489;-51
2022/06/22 03:41:21;;;;;;;;;9.00;9.00;;;;;15.84;63.61;99293.34;6285465;20;2764868;-60
2022/06/22 03:44:14;;;;;;;;;10.29;9.43;;;;;16.04;63.45;99298.81;6322386;20;1798253;-60
2022/06/22 03:46:54;;;;;;;;;9.00;9.00;;;;;16.19;62.74;99309.13;6312694;20;2743062;-60
2022/06/22 03:49:39;;;;;;;;;10.00;10.00;;;;;16.11;63.83;99294.53;6279302;20;2786727;-60
2022/06/22 03:52:37;;;;;;;;;6.40;4.80;;;;;16.12;62.92;99301.69;6303197;20;2744047;-60
2022/06/22 03:55:17;;;;;;;;;8.00;8.00;;;;;16.42;62.04;99298.88;6314074;20;2756563;-60
2022/06/22 03:57:52;;;;;;;;;4.50;4.50;;;;;16.37;61.86;99294.88;6282117;20;2726313;-60
2022/06/22 04:00:23;;;;;;;;;10.00;8.60;;;;;16.52;61.54;99298.03;6304007;20;2767148;-60
2022/06/22 04:02:53;;;;;;;;;8.00;8.00;;;;;16.60;61.53;99290.03;6303799;20;2746137;-60
2022/06/22 04:05:39;;;;;;;;;9.60;7.60;;;;;16.61;61.64;99295.34;6336294;20;2748622;-60
2022/06/22 04:08:13;;;;;;;;;8.00;8.00;;;;;16.59;61.43;99286.47;6309151;20;2743996;-60
2022/06/22 04:10:58;;;;;;;;;12.00;10.00;;;;;16.86;61.39;99291.19;6275077;20;2796137;-60
2022/06/22 04:13:36;;;;;;;;;8.00;7.50;;;;;17.13;61.02;99288.72;6283290;20;2746079;-61
2022/06/22 04:16:33;;;;;;;;;8.00;8.00;;;;;16.98;62.05;99282.91;6279964;20;2754456;-60
2022/06/22 04:19:13;;;;;;;;;8.50;8.50;;;;;17.23;60.68;99266.00;6280635;20;2752445;-46
2022/06/22 04:22:19;;;;;;;;;7.00;7.00;;;;;17.19;61.33;99263.72;6287110;20;2738945;-49
2022/06/22 04:25:02;;;;;;;;;10.80;8.80;;;;;17.68;59.69;99261.69;6307611;20;2765464;-47
2022/06/22 04:27:44;;;;;;;;;12.67;9.67;;;;;17.63;60.01;99270.28;6281935;20;2789188;-48
2022/06/22 04:30:22;;;;;;;;;9.00;8.00;;;;;17.78;59.09;99259.78;6315286;20;2756555;-46
2022/06/22 04:33:06;;;;;;;;;10.20;7.40;;;;;18.19;59.62;99254.81;6306019;20;2753480;-48
2022/06/22 04:35:54;;;;;;;;;7.60;7.60;;;;;18.39;58.40;99241.97;6312727;20;2735748;-50
2022/06/22 04:39:18;;;;;;;;;9.40;9.40;;;;;18.57;58.74;99245.53;6344053;20;2783693;-49
2022/06/22 04:41:49;;;;;;;;;8.00;8.00;;;;;18.74;57.35;99259.25;6306383;20;2741902;-49
2022/06/22 04:44:25;;;;;;;;;8.40;8.40;;;;;18.98;58.50;99259.47;6309596;20;2753379;-48
2022/06/22 04:47:17;;;;;;;;;7.00;7.00;;;;;18.81;62.38;99252.22;6291416;20;2630522;-47
2022/06/22 04:49:56;;;;;;;;;9.60;9.00;;;;;18.95;61.13;99264.38;6308591;20;2762797;-48
2022/06/22 04:52:38;;;;;;;;;7.40;7.40;;;;;19.01;61.45;99269.19;6309614;20;2749191;-45
2022/06/22 04:55:16;;;;;;;;;9.80;8.40;;;;;18.68;63.05;99268.91;6339395;20;2758750;-46
2022/06/22 04:57:54;;;;;;;;;11.00;8.00;;;;;18.67;61.79;99277.19;6281311;20;2771178;-48
2022/06/22 05:00:28;;;;;;;;;11.67;8.33;;;;;19.07;61.93;99274.84;6283601;20;2796181;-48
2022/06/22 05:03:13;;;;;;;;;7.43;6.57;;;;;19.22;61.79;99277.00;6361445;20;3439809;-48
2022/06/22 05:05:43;;;;;;;;;7.20;7.20;;;;;19.35;62.09;99293.75;6338647;20;2741977;-50
2022/06/22 05:08:39;;;;;;;;;5.60;5.60;;;;;19.57;60.71;99291.50;6343817;20;2734697;-48
2022/06/22 05:11:22;;;;;;;;;7.60;6.60;;;;;19.77;59.99;99298.44;6336259;20;2733640;-50
2022/06/22 05:13:56;;;;;;;;;9.20;9.20;;;;;19.87;60.71;99304.63;6335600;20;2759634;-48
2022/06/22 05:16:32;;;;;;;;;6.40;6.40;;;;;20.01;58.67;99310.47;6308184;20;2739856;-47
2022/06/22 05:19:03;;;;;;;;;6.40;6.00;;;;;20.63;55.85;99313.75;6342446;20;2746118;-49
2022/06/22 05:21:46;;;;;;;;;7.80;7.80;;;;;20.87;54.60;99307.44;6337431;20;2733753;-49
2022/06/22 05:24:32;;;;;;;;;6.60;6.60;;;;;21.05;52.49;99304.56;6340253;20;2740895;-46
2022/06/22 05:27:07;;;;;;;;;5.00;5.00;;;;;21.46;51.51;99319.06;6315908;20;2733594;-45
2022/06/22 05:29:59;;;;;;;;;6.00;6.00;;;;;21.54;50.89;99326.38;6339305;20;2745043;-44
2022/06/22 05:33:00;;;;;;;;;6.00;6.00;;;;;21.64;49.45;99327.06;6314373;20;2735835;-47
2022/06/22 05:35:48;;;;;;;;;6.00;5.00;;;;;22.15;47.70;99329.44;6292806;20;2737857;-44
2022/06/22 05:38:19;;;;;;;;;4.67;4.67;;;;;22.18;47.62;99322.75;6319068;20;2743133;-48
2022/06/22 05:40:50;;;;;;;;;5.00;5.00;;;;;22.23;48.01;99334.06;6312087;20;2731591;-51
2022/06/22 05:43:21;;;;;;;;;4.80;4.80;;;;;22.45;45.69;99338.69;6344270;20;2749200;-48
2022/06/22 05:45:55;;;;;;;;;4.80;4.80;;;;;22.35;46.19;99333.47;6310012;20;2743054;-45
2022/06/22 05:48:28;;;;;;;;;4.00;4.00;;;;;22.39;44.97;99342.16;6342237;20;2742993;-48
2022/06/22 05:51:21;;;;;;;;;5.00;5.00;;;;;22.53;44.47;99337.81;6340282;20;2742961;-48
2022/06/22 05:53:57;;;;;;;;;4.00;4.00;;;;;22.63;43.86;99343.91;6340117;20;2735685;-48
2022/06/22 05:56:47;;;;;;;;;4.00;4.00;;;;;23.00;44.34;99345.91;6322034;20;2755529;-44
2022/06/22 05:59:36;;;;;;;;;3.80;3.80;;;;;22.65;44.01;99351.94;6342577;20;2733586;-45
2022/06/22 06:02:35;;;;;;;;;4.80;4.80;;;;;23.00;42.25;99356.84;6341937;20;2745129;-47
2022/06/22 06:05:30;;;;;;;;;4.80;3.00;;;;;23.36;42.09;99355.38;6345607;20;2744166;-48
2022/06/22 06:08:14;;;;;;;;;3.80;3.80;;;;;23.74;41.26;99364.44;6341696;20;2732571;-47
2022/06/22 06:10:44;;;;;;;;;4.40;4.40;;;;;23.74;40.62;99358.97;6340767;20;2744086;-44
2022/06/22 06:13:19;;;;;;;;;4.20;4.20;;;;;24.12;40.49;99361.63;6342407;20;2744032;-47
2022/06/22 06:15:57;;;;;;;;;4.00;4.00;;;;;24.32;39.99;99364.63;6292222;20;2732562;-45
2022/06/22 06:18:40;;;;;;;;;3.00;3.00;;;;;24.06;39.47;99344.03;6341315;20;2739910;-47
2022/06/22 06:21:19;;;;;;;;;5.00;5.00;;;;;24.35;39.25;99353.25;6317870;20;2748394;-47
2022/06/22 06:24:27;;;;;;;;;4.00;4.00;;;;;24.09;38.78;99351.03;6341115;20;2770109;-51
2022/06/22 06:30:28;;;;;;;;;3.00;3.00;;;;;24.84;36.63;99349.88;6310237;20;2752406;-55
2022/06/22 06:33:15;;;;;;;;;2.80;2.80;;;;;25.07;35.73;99349.69;6308018;20;2727390;-50
2022/06/22 06:36:18;;;;;;;;;3.00;3.00;;;;;25.27;34.46;99360.88;6344496;20;2735654;-53
2022/06/22 06:39:03;;;;;;;;;3.00;3.00;;;;;24.79;35.17;99351.50;6342385;20;2744014;-53
2022/06/22 06:42:03;;;;;;;;;3.40;3.40;;;;;24.98;35.47;99354.44;6341884;20;2750245;-55
2022/06/22 06:44:38;;;;;;;;;2.80;2.80;;;;;24.24;35.53;99349.13;6308933;20;2724277;-53
2022/06/22 06:47:26;;;;;;;;;3.00;3.00;;;;;24.90;35.68;99353.72;6344700;20;2748228;-53
2022/06/22 06:50:30;;;;;;;;;6.00;4.00;;;;;25.23;35.38;99354.09;6308221;20;2744028;-51
2022/06/22 06:53:46;;;;;;;;;3.00;3.00;;;;;25.51;35.05;99370.59;6345598;20;2738077;-52
2022/06/22 06:56:42;;;;;;;;;3.00;3.00;;;;;25.59;33.66;99364.97;6340774;20;2748358;-53
2022/06/22 06:59:23;;;;;;;;;2.20;2.20;;;;;25.07;34.21;99368.91;6310833;20;2740019;-54
2022/06/22 07:01:52;;;;;;;;;2.60;2.60;;;;;25.28;34.72;99364.50;6341692;20;2739839;-59
2022/06/22 07:04:32;;;;;;;;;3.00;3.00;;;;;26.02;34.50;99362.13;6321588;20;2739827;-56
2022/06/22 07:07:48;;;;;;;;;2.60;2.60;;;;;25.23;33.96;99364.25;6340762;20;2744228;-58
2022/06/22 07:10:38;;;;;;;;;3.80;3.80;;;;;25.26;34.44;99350.09;6307829;20;2738782;-55
2022/06/22 07:13:36;;;;;;;;;3.00;3.00;;;;;25.75;34.29;99354.69;6347681;20;2748197;-60
2022/06/22 07:16:18;;;;;;;;;2.33;2.33;;;;;24.59;35.94;99357.59;6290940;20;2723214;-60
2022/06/22 07:19:20;;;;;;;;;4.00;4.00;;;;;25.45;35.60;99340.31;6339297;20;2738797;-58
2022/06/22 07:21:56;;;;;;;;;3.80;2.20;;;;;26.01;32.96;99352.19;6339755;20;2746074;-60
2022/06/22 07:24:55;;;;;;;;;3.00;3.00;;;;;27.03;31.93;99352.38;6287577;20;2736748;-60
2022/06/22 07:27:33;;;;;;;;;3.00;3.00;;;;;27.30;32.70;99351.34;6339086;20;2744225;-59
2022/06/22 07:30:35;;;;;;;;;3.00;3.00;;;;;27.34;31.32;99351.81;6308052;20;2744089;-59
2022/06/22 07:33:38;;;;;;;;;4.40;3.00;;;;;26.75;32.12;99342.31;6308733;20;2744045;-61
2022/06/22 07:36:34;;;;;;;;;4.00;4.00;;;;;27.08;32.17;99342.41;6310598;20;2751360;-60
2022/06/22 07:39:41;;;;;;;;;4.20;4.20;;;;;26.55;33.23;99341.44;6309530;20;2750277;-60
2022/06/22 07:42:13;;;;;;;;;4.80;4.80;;;;;27.46;32.76;99343.72;6308737;20;2736711;-60
2022/06/22 07:44:43;;;;;;;;;3.20;3.20;;;;;26.35;32.67;99336.66;6311593;20;2744099;-60
2022/06/22 07:47:37;;;;;;;;;4.00;4.00;;;;;26.87;32.44;99332.41;6312747;20;2737840;-60
2022/06/22 07:50:35;;;;;;;;;3.40;3.40;;;;;25.90;34.37;99327.13;6307121;20;2740880;-60
2022/06/22 07:53:39;;;;;;;;;4.00;4.00;;;;;27.39;32.33;99337.38;6309486;20;2748190;-60
2022/06/22 07:57:05;;;;;;;;;3.67;3.67;;;;;26.66;32.55;99318.81;6283975;20;2755948;-60
2022/06/22 07:59:50;;;;;;;;;4.00;4.00;;;;;27.00;31.90;99315.06;6340974;20;2738195;-60
2022/06/22 08:02:28;;;;;;;;;5.75;4.00;;;;;27.39;32.32;99332.72;6314824;20;2744016;-60
2022/06/22 08:05:26;;;;;;;;;2.60;2.60;;;;;26.89;32.57;99330.31;6314893;20;2735655;-58
2022/06/22 08:08:44;;;;;;;;;5.80;4.00;;;;;27.32;32.07;99316.16;6344916;20;2752371;-59
2022/06/22 08:11:39;;;;;;;;;5.00;4.00;;;;;27.63;31.91;99317.41;6310587;20;2752386;-60
2022/06/22 08:14:35;;;;;;;;;3.00;3.00;;;;;27.29;31.95;99316.59;6313802;20;2739902;-59
2022/06/22 08:17:47;;;;;;;;;4.00;4.00;;;;;27.31;31.92;99319.97;6344240;20;2746121;-60
2022/06/22 08:20:24;;;;;;;;;3.20;3.20;;;;;26.92;33.12;99324.38;6315065;20;2751344;-60
2022/06/22 08:22:58;;;;;;;;;4.60;3.60;;;;;27.69;32.22;99332.25;6314660;20;2750292;-60
2022/06/22 08:25:50;;;;;;;;;3.20;3.00;;;;;26.70;31.35;99317.34;6314011;20;2735674;-59
2022/06/22 08:28:23;;;;;;;;;3.00;3.00;;;;;27.36;32.57;99324.88;6312881;20;2739876;-59
2022/06/22 08:30:55;;;;;;;;;4.00;3.20;;;;;27.51;31.35;99322.72;6311498;20;2739841;-60
2022/06/22 08:33:53;;;;;;;;;2.40;2.40;;;;;27.41;30.57;99329.72;6312974;20;2737889;-60
2022/06/22 08:36:48;;;;;;;;;3.60;3.60;;;;;27.93;30.36;99330.75;6343469;20;2744005;-60
2022/06/22 08:39:38;;;;;;;;;3.20;3.20;;;;;27.72;30.59;99326.31;6311201;20;2748166;-60
2022/06/22 08:43:01;;;;;;;;;3.60;3.40;;;;;28.20;30.34;99321.34;6312661;20;2738807;-59
2022/06/22 08:46:08;;;;;;;;;2.50;2.50;;;;;28.14;29.28;99321.34;6316577;20;2052463;-60
2022/06/22 08:49:22;;;;;;;;;4.00;2.00;;;;;27.72;30.62;99315.28;6344365;20;2726379;-60
2022/06/22 08:52:53;;;;;;;;;2.80;2.00;;;;;28.16;29.20;99306.28;6343923;20;2731488;-60
2022/06/22 08:56:29;;;;;;;;;3.20;3.20;;;;;27.90;29.85;99303.59;6342129;20;2755470;-60
2022/06/22 08:59:56;;;;;;;;;3.00;3.00;;;;;28.01;30.15;99323.06;6310944;20;2735656;-59
2022/06/22 09:03:12;;;;;;;;;3.00;3.00;;;;;28.00;28.50;99304.00;6314555;20;2727412;-60
2022/06/22 09:06:02;;;;;;;;;3.00;3.00;;;;;28.11;28.54;99311.59;6345181;20;2744027;-59
2022/06/22 09:08:59;;;;;;;;;3.00;3.00;;;;;28.78;29.14;99303.00;6312878;20;2729492;-56
2022/06/22 09:11:49;;;;;;;;;2.20;2.20;;;;;29.46;28.31;99305.06;6341528;20;2739830;-57
2022/06/22 09:15:06;;;;;;;;;3.20;3.20;;;;;28.23;28.26;99306.25;6311029;20;2745093;-59
2022/06/22 09:18:34;;;;;;;;;3.00;3.00;;;;;28.26;28.69;99310.50;6292964;20;2737888;-61
2022/06/22 09:21:41;;;;;;;;;2.60;2.60;;;;;27.82;28.97;99304.69;6346058;20;2724347;-60
2022/06/22 09:24:20;;;;;;;;;2.00;2.00;;;;;28.65;27.11;99310.31;6344306;20;2746163;-61
2022/06/22 09:27:42;;;;;;;;;2.00;2.00;;;;;28.48;27.62;99319.34;6313691;20;2736826;-61
2022/06/22 09:30:58;;;;;;;;;2.40;2.00;;;;;28.95;27.37;99312.47;6342928;20;2744017;-60
2022/06/22 09:33:42;;;;;;;;;2.00;2.00;;;;;28.58;27.53;99319.72;6314306;20;2744079;-60
2022/06/22 09:36:56;;;;;;;;;3.00;3.00;;;;;28.95;27.41;99315.22;6313115;20;2756508;-58
2022/06/22 09:40:06;;;;;;;;;3.00;2.00;;;;;28.63;26.80;99304.16;6310504;20;2747194;-59
2022/06/22 09:43:18;;;;;;;;;3.00;2.00;;;;;27.78;26.60;99304.22;6312720;20;2744033;-58
2022/06/22 09:45:56;;;;;;;;;3.20;2.80;;;;;28.89;26.00;99299.56;6308605;20;2733608;-59
2022/06/22 09:49:38;;;;;;;;;2.60;2.60;;;;;28.72;26.71;99307.50;6344682;20;2737795;-59
2022/06/22 09:52:51;;;;;;;;;1.00;1.00;;;;;29.46;26.44;99294.00;6309553;20;2727364;-57
2022/06/22 09:56:25;;;;;;;;;3.20;2.60;;;;;28.83;25.60;99292.13;6342575;20;2737897;-59
2022/06/22 09:59:08;;;;;;;;;2.00;2.00;;;;;29.79;25.95;99293.72;6308236;20;2744026;-60
2022/06/22 10:02:26;;;;;;;;;2.00;2.00;;;;;30.45;25.79;99296.81;6310398;20;2752461;-59
2022/06/22 10:05:49;;;;;;;;;3.60;2.00;;;;;29.61;25.45;99291.75;6311402;20;2738948;-59
2022/06/22 10:08:36;;;;;;;;;1.00;1.00;;;;;28.79;25.24;99277.09;6312622;20;2732571;-60
2022/06/22 10:11:23;;;;;;;;;2.20;1.00;;;;;29.86;24.80;99285.31;6311148;20;2727416;-59
2022/06/22 10:14:24;;;;;;;;;3.00;3.00;;;;;29.42;25.42;99290.84;6344488;20;2734618;-59
2022/06/22 10:17:26;;;;;;;;;2.00;2.00;;;;;29.06;26.45;99295.19;6346252;20;2750314;-60
2022/06/22 10:20:44;;;;;;;;;3.40;2.00;;;;;28.44;25.59;99286.63;6313795;20;2726359;-55
2022/06/22 10:23:38;;;;;;;;;1.80;1.80;;;;;28.58;26.22;99281.03;6340627;20;2739915;-60
2022/06/22 10:26:38;;;;;;;;;2.00;2.00;;;;;28.41;26.55;99286.19;6334347;20;3456486;-59
2022/06/22 10:29:41;;;;;;;;;2.00;2.00;;;;;28.41;27.68;99276.00;6344024;20;2737751;-59
2022/06/22 10:32:39;;;;;;;;;3.00;3.00;;;;;28.77;25.76;99270.94;6309448;20;2743029;-52
2022/06/22 10:35:37;;;;;;;;;2.00;2.00;;;;;29.00;25.42;99268.41;6306547;20;2739861;-60
2022/06/22 10:38:42;;;;;;;;;2.20;1.20;;;;;28.01;24.21;99275.31;6308811;20;2737807;-59
2022/06/22 10:45:11;;;;;;;;;2.60;1.40;;;;;28.90;23.55;99279.13;6341771;20;2735927;-59
2022/06/22 10:48:20;;;;;;;;;4.60;2.00;;;;;28.26;25.26;99278.19;6308051;20;2750268;-59
2022/06/22 10:51:33;;;;;;;;;3.40;3.00;;;;;28.16;25.03;99278.66;6308548;20;2747157;-59
2022/06/22 10:54:35;;;;;;;;;3.20;2.00;;;;;27.40;26.01;99279.25;6310843;20;2725301;-59
2022/06/22 10:58:17;;;;;;;;;2.00;2.00;;;;;28.40;26.33;99285.34;6341528;20;2741945;-59
2022/06/22 11:02:01;;;;;;;;;2.00;2.00;;;;;27.99;25.08;99283.00;6309046;20;2752405;-59
2022/06/22 11:05:08;;;;;;;;;2.40;2.40;;;;;28.17;26.20;99283.13;6306602;20;2738799;-59
2022/06/22 11:07:57;;;;;;;;;2.00;2.00;;;;;28.06;26.04;99281.03;6307554;20;2744008;-55
2022/06/22 11:11:06;;;;;;;;;1.00;1.00;;;;;27.94;26.60;99283.63;6308728;20;2732692;-56
2022/06/22 11:14:16;;;;;;;;;2.00;2.00;;;;;29.10;26.61;99285.38;6338398;20;2735723;-58
2022/06/22 11:17:25;;;;;;;;;1.00;1.00;;;;;29.20;24.45;99278.50;6308967;20;2727393;-60
2022/06/22 11:21:01;;;;;;;;;0.80;0.80;;;;;28.76;22.65;99278.38;6339751;20;2724199;-60
2022/06/22 11:24:05;;;;;;;;;3.80;2.00;;;;;28.69;23.41;99274.81;6340393;20;2754444;-59
2022/06/22 11:33:28;;;;;;;;;1.80;1.80;;;;;29.37;22.68;99285.16;6345972;20;2733666;-59
2022/06/22 11:36:39;;;;;;;;;1.00;1.00;;;;;29.14;22.96;99273.88;6315536;20;2735679;-59
2022/06/22 11:39:31;;;;;;;;;1.00;1.00;;;;;29.06;21.98;99270.31;6346029;20;2727315;-59
2022/06/22 11:42:31;;;;;;;;;1.00;1.00;;;;;29.30;23.04;99274.13;6347333;20;2735723;-59
2022/06/22 11:45:54;;;;;;;;;0.80;0.80;;;;;29.63;23.52;99277.69;6349055;20;2729466;-60
2022/06/22 11:49:13;;;;;;;;;2.00;2.00;;;;;29.19;23.91;99265.75;6346793;20;2752423;-60
2022/06/22 11:52:41;;;;;;;;;1.00;1.00;;;;;29.26;23.15;99256.31;6316319;20;2735776;-60
2022/06/22 11:55:25;;;;;;;;;1.00;1.00;;;;;29.50;22.55;99251.00;6311465;20;2733669;-60
2022/06/22 11:59:05;;;;;;;;;1.00;1.00;;;;;29.49;23.51;99250.16;6346768;20;2728381;-59
2022/06/22 12:02:51;;;;;;;;;1.60;1.60;;;;;29.05;23.33;99240.97;6310953;20;2733583;-59
2022/06/22 12:06:20;;;;;;;;;2.20;1.80;;;;;29.83;22.12;99245.13;6341051;20;2744018;-59
2022/06/22 12:09:43;;;;;;;;;1.00;1.00;;;;;28.86;22.35;99248.34;6312400;20;2727316;-59
2022/06/22 12:13:22;;;;;;;;;2.00;2.00;;;;;29.38;22.70;99247.28;6344788;20;2742002;-59
2022/06/22 12:16:43;;;;;;;;;2.00;2.00;;;;;29.25;21.82;99240.81;6309473;20;2744173;-59
2022/06/22 12:19:27;;;;;;;;;1.00;1.00;;;;;29.59;21.55;99243.22;6309465;20;2726490;-59
2022/06/22 12:23:03;;;;;;;;;0.00;0.00;;;;;29.46;23.23;99238.69;6347089;20;2735694;-59
2022/06/22 12:26:56;;;;;;;;;2.20;1.00;;;;;29.41;22.72;99241.28;6315678;20;2716965;-59
2022/06/22 12:30:11;;;;;;;;;0.60;0.40;;;;;29.56;22.38;99238.16;6343479;20;2720091;-59
2022/06/22 12:32:46;;;;;;;;;1.00;1.00;;;;;29.20;22.42;99232.34;6344127;20;2733603;-59
2022/06/22 12:35:46;;;;;;;;;1.00;1.00;;;;;30.34;22.57;99235.56;6312833;20;2731617;-59
2022/06/22 12:39:06;;;;;;;;;1.00;1.00;;;;;30.45;20.80;99227.53;6314565;20;2737781;-59
2022/06/22 12:42:23;;;;;;;;;1.00;1.00;;;;;30.00;21.86;99234.28;6316708;20;2727391;-57
2022/06/22 12:45:19;;;;;;;;;1.00;1.00;;;;;30.16;22.44;99227.25;6314830;20;2727385;-61
2022/06/22 12:48:11;;;;;;;;;2.60;1.00;;;;;29.78;21.23;99225.63;6346515;20;2727331;-59
2022/06/22 12:51:08;;;;;;;;;1.00;1.00;;;;;30.06;20.86;99227.81;6345974;20;2722211;-59
2022/06/22 12:54:12;;;;;;;;;1.33;1.00;;;;;30.44;20.55;99223.06;6326707;20;2725236;-59
2022/06/22 12:57:12;;;;;;;;;0.60;0.40;;;;;29.97;20.48;99216.22;6340559;20;2728478;-58
2022/06/22 13:00:06;;;;;;;;;1.00;1.00;;;;;29.79;20.80;99210.69;6344275;20;2727344;-58
2022/06/22 13:02:39;;;;;;;;;1.00;1.00;;;;;29.52;21.84;99216.50;6346814;20;2036788;-58
2022/06/22 13:05:18;;;;;;;;;2.00;2.00;;;;;29.84;21.25;99208.06;6343736;20;2740017;-59
2022/06/22 13:08:06;;;;;;;;;0.00;0.00;;;;;29.46;21.42;99200.78;6315615;20;2731532;-59
2022/06/22 13:10:44;;;;;;;;;1.00;1.00;;;;;29.59;20.79;99204.50;6346601;20;2727392;-59
2022/06/22 13:13:50;;;;;;;;;1.00;1.00;;;;;29.57;21.33;99201.09;6344349;20;2733586;-59
2022/06/22 13:16:35;;;;;;;;;2.00;2.00;;;;;30.10;22.07;99201.34;6341727;20;2744119;-59
2022/06/22 13:19:23;;;;;;;;;1.60;1.60;;;;;29.68;22.38;99200.41;6311535;20;2746071;-59
2022/06/22 13:22:37;;;;;;;;;1.40;1.40;;;;;30.26;21.77;99194.34;6311940;20;2730600;-62
2022/06/22 13:25:43;;;;;;;;;3.00;1.00;;;;;30.71;21.95;99185.56;6344039;20;2724304;-61
2022/06/22 13:28:46;;;;;;;;;1.20;1.20;;;;;30.40;20.88;99184.75;6343883;20;2727085;-61
2022/06/22 13:31:23;;;;;;;;;1.00;1.00;;;;;30.31;20.82;99185.34;6340428;20;2727312;-60
2022/06/22 13:34:10;;;;;;;;;0.80;0.80;;;;;29.88;21.54;99191.84;6344963;20;2723245;-61
2022/06/22 13:37:54;;;;;;;;;1.00;1.00;;;;;30.13;21.43;99188.97;6342328;20;2726318;-61
2022/06/22 13:40:50;;;;;;;;;1.00;1.00;;;;;29.87;21.88;99179.91;6338093;20;2737850;-61